Terminal Aerodrome Forecast
Issued by NWS

Home | Current Version | Previous Version | Text Only | Print | Product List | Glossary Off
Versions: 1 2 3 4 5 6 7 8 9 10 11 12 13 14 15 16 17

000
FTUS43 KICT 040521
TAFRSL
TAF
KRSL 040521Z 0406/0506 01014KT P6SM BKN035 OVC090
     FM040800 02014KT 3SM -SN OVC022
     FM041600 01014KT P6SM SCT025 BKN100
     FM042200 01005KT P6SM SCT120=

USA.gov is the U.S. government's official web portal to all federal, state and local government web resources and services.